sensor_id;sensor_type;location;lat;lon;timestamp;pressure;altitude;pressure_sealevel;temperature;humidity
8699;BME280;4386;51.236;6.742;2023-05-01T00:00:28;96549.16;;;17.37;55.41
8699;BME280;4386;51.236;6.742;2023-05-01T00:01:34;96548.34;;;17.37;55.50
8699;BME280;4386;51.236;6.742;2023-05-01T00:02:57;96543.00;;;17.37;55.64
8699;BME280;4386;51.236;6.742;2023-05-01T00:04:21;96545.13;;;17.35;55.36
8699;BME280;4386;51.236;6.742;2023-05-01T00:05:44;96541.13;;;17.32;55.61
8699;BME280;4386;51.236;6.742;2023-05-01T00:07:09;96545.66;;;17.32;55.42
8699;BME280;4386;51.236;6.742;2023-05-01T00:08:32;96544.06;;;17.31;55.57
8699;BME280;4386;51.236;6.742;2023-05-01T00:09:56;96541.66;;;17.29;55.51
8699;BME280;4386;51.236;6.742;2023-05-01T00:11:19;96532.28;;;17.27;55.32
8699;BME280;4386;51.236;6.742;2023-05-01T00:12:42;96534.16;;;17.26;55.54
8699;BME280;4386;51.236;6.742;2023-05-01T00:14:06;96536.00;;;17.26;55.30
8699;BME280;4386;51.236;6.742;2023-05-01T00:15:28;96538.44;;;17.27;55.48
8699;BME280;4386;51.236;6.742;2023-05-01T00:16:51;96548.34;;;17.27;55.55
8699;BME280;4386;51.236;6.742;2023-05-01T00:18:15;96539.22;;;17.28;55.37
8699;BME280;4386;51.236;6.742;2023-05-01T00:19:37;96535.75;;;17.27;55.13
8699;BME280;4386;51.236;6.742;2023-05-01T00:21:01;96536.81;;;17.26;55.36
8699;BME280;4386;51.236;6.742;2023-05-01T00:22:25;96531.47;;;17.26;55.61
8699;BME280;4386;51.236;6.742;2023-05-01T00:23:49;96521.56;;;17.27;55.28
8699;BME280;4386;51.236;6.742;2023-05-01T00:25:12;96517.81;;;17.28;55.00
8699;BME280;4386;51.236;6.742;2023-05-01T00:26:35;96528.50;;;17.28;55.14
8699;BME280;4386;51.236;6.742;2023-05-01T00:27:58;96519.44;;;17.29;55.59
8699;BME280;4386;51.236;6.742;2023-05-01T00:29:21;96519.44;;;17.29;55.23
8699;BME280;4386;51.236;6.742;2023-05-01T00:30:44;96522.09;;;17.29;55.19
8699;BME280;4386;51.236;6.742;2023-05-01T00:32:06;96512.47;;;17.28;55.08
8699;BME280;4386;51.236;6.742;2023-05-01T00:33:31;96511.94;;;17.26;55.40
8699;BME280;4386;51.236;6.742;2023-05-01T00:34:55;96518.63;;;17.28;54.95
8699;BME280;4386;51.236;6.742;2023-05-01T00:36:18;96517.81;;;17.28;55.07
8699;BME280;4386;51.236;6.742;2023-05-01T00:37:43;96518.91;;;17.27;54.95
8699;BME280;4386;51.236;6.742;2023-05-01T00:39:07;96508.19;;;17.27;54.90
8699;BME280;4386;51.236;6.742;2023-05-01T00:40:30;96507.38;;;17.26;54.94
8699;BME280;4386;51.236;6.742;2023-05-01T00:41:53;96519.72;;;17.27;55.09
8699;BME280;4386;51.236;6.742;2023-05-01T00:43:17;96525.06;;;17.27;55.13
8699;BME280;4386;51.236;6.742;2023-05-01T00:44:39;96519.97;;;17.26;54.89
8699;BME280;4386;51.236;6.742;2023-05-01T00:46:03;96516.22;;;17.27;54.82
8699;BME280;4386;51.236;6.742;2023-05-01T00:47:25;96516.47;;;17.25;54.83
8699;BME280;4386;51.236;6.742;2023-05-01T00:48:48;96517.81;;;17.28;54.83
8699;BME280;4386;51.236;6.742;2023-05-01T00:50:12;96512.75;;;17.26;54.28
8699;BME280;4386;51.236;6.742;2023-05-01T00:51:35;96508.19;;;17.27;54.78
8699;BME280;4386;51.236;6.742;2023-05-01T00:52:59;96512.47;;;17.28;54.55
8699;BME280;4386;51.236;6.742;2023-05-01T00:54:23;96507.09;;;17.28;54.61
8699;BME280;4386;51.236;6.742;2023-05-01T00:55:48;96509.25;;;17.26;54.73
8699;BME280;4386;51.236;6.742;2023-05-01T00:57:12;96499.06;;;17.28;54.80
8699;BME280;4386;51.236;6.742;2023-05-01T00:58:36;96509.25;;;17.26;54.71
8699;BME280;4386;51.236;6.742;2023-05-01T01:00:00;96503.09;;;17.25;54.65
8699;BME280;4386;51.236;6.742;2023-05-01T01:01:24;96505.53;;;17.27;54.59
8699;BME280;4386;51.236;6.742;2023-05-01T01:02:49;96501.75;;;17.28;54.79
8699;BME280;4386;51.236;6.742;2023-05-01T01:04:13;96505.53;;;17.27;54.54
8699;BME280;4386;51.236;6.742;2023-05-01T01:05:41;96496.41;;;17.28;54.57
8699;BME280;4386;51.236;6.742;2023-05-01T01:07:10;96492.94;;;17.27;54.47
8699;BME280;4386;51.236;6.742;2023-05-01T01:08:38;96499.06;;;17.28;54.42
8699;BME280;4386;51.236;6.742;2023-05-01T01:10:07;96506.56;;;17.26;54.53
8699;BME280;4386;51.236;6.742;2023-05-01T01:11:39;96500.69;;;17.24;54.77
8699;BME280;4386;51.236;6.742;2023-05-01T01:13:08;96497.47;;;17.22;54.56
8699;BME280;4386;51.236;6.742;2023-05-01T01:14:39;96508.16;;;17.22;54.70
8699;BME280;4386;51.236;6.742;2023-05-01T01:16:09;96501.22;;;17.21;54.67
8699;BME280;4386;51.236;6.742;2023-05-01T01:17:40;96505.78;;;17.20;54.78
8699;BME280;4386;51.236;6.742;2023-05-01T01:19:20;96501.22;;;17.21;54.60
8699;BME280;4386;51.236;6.742;2023-05-01T01:20:51;96501.78;;;17.17;54.76
8699;BME280;4386;51.236;6.742;2023-05-01T01:22:21;96502.81;;;17.16;54.92
8699;BME280;4386;51.236;6.742;2023-05-01T01:24:12;96508.44;;;17.15;54.91
8699;BME280;4386;51.236;6.742;2023-05-01T01:26:03;96502.81;;;17.11;54.77
8699;BME280;4386;51.236;6.742;2023-05-01T01:27:49;96510.81;;;17.11;54.72
8699;BME280;4386;51.236;6.742;2023-05-01T01:29:38;96506.00;;;17.08;55.39
8699;BME280;4386;51.236;6.742;2023-05-01T01:31:13;96501.75;;;17.07;55.10
8699;BME280;4386;51.236;6.742;2023-05-01T01:32:58;96507.34;;;17.06;54.98
8699;BME280;4386;51.236;6.742;2023-05-01T01:34:27;96503.88;;;17.05;55.15
8699;BME280;4386;51.236;6.742;2023-05-01T01:35:56;96501.19;;;17.05;55.11
8699;BME280;4386;51.236;6.742;2023-05-01T01:37:23;96503.06;;;17.05;55.16
8699;BME280;4386;51.236;6.742;2023-05-01T01:38:57;96504.16;;;17.04;55.23
8699;BME280;4386;51.236;6.742;2023-05-01T01:40:24;96497.69;;;17.05;55.35
8699;BME280;4386;51.236;6.742;2023-05-01T01:41:53;96502.28;;;17.04;55.32
8699;BME280;4386;51.236;6.742;2023-05-01T01:43:19;96497.69;;;17.05;55.27
8699;BME280;4386;51.236;6.742;2023-05-01T01:44:49;96501.72;;;17.02;55.29
8699;BME280;4386;51.236;6.742;2023-05-01T01:46:15;96504.41;;;17.02;55.37
8699;BME280;4386;51.236;6.742;2023-05-01T01:47:40;96495.84;;;17.00;55.45
8699;BME280;4386;51.236;6.742;2023-05-01T01:49:06;96497.47;;;17.01;55.20
8699;BME280;4386;51.236;6.742;2023-05-01T01:50:32;96497.47;;;17.01;55.66
8699;BME280;4386;51.236;6.742;2023-05-01T01:52:00;96496.09;;;16.99;55.19
8699;BME280;4386;51.236;6.742;2023-05-01T01:53:25;96497.19;;;16.98;55.50
8699;BME280;4386;51.236;6.742;2023-05-01T01:54:50;96497.44;;;16.96;55.53
8699;BME280;4386;51.236;6.742;2023-05-01T01:56:16;96497.19;;;16.98;55.58
8699;BME280;4386;51.236;6.742;2023-05-01T01:57:40;96497.19;;;16.98;55.81
8699;BME280;4386;51.236;6.742;2023-05-01T01:59:07;96502.53;;;16.98;55.67
8699;BME280;4386;51.236;6.742;2023-05-01T02:00:31;96495.28;;;16.98;55.54
8699;BME280;4386;51.236;6.742;2023-05-01T02:01:55;96498.78;;;16.99;55.68
8699;BME280;4386;51.236;6.742;2023-05-01T02:03:20;96497.97;;;16.98;55.73
8699;BME280;4386;51.236;6.742;2023-05-01T02:04:47;96492.09;;;16.96;55.66
8699;BME280;4386;51.236;6.742;2023-05-01T02:05:51;96503.31;;;16.98;55.53
8699;BME280;4386;51.236;6.742;2023-05-01T02:06:57;96497.97;;;16.98;55.97
8699;BME280;4386;51.236;6.742;2023-05-01T02:08:03;96496.91;;;16.99;55.73
8699;BME280;4386;51.236;6.742;2023-05-01T02:09:07;96499.03;;;17.02;55.60
8699;BME280;4386;51.236;6.742;2023-05-01T02:10:12;96489.97;;;17.03;55.72
8699;BME280;4386;51.236;6.742;2023-05-01T02:11:18;96498.00;;;17.03;55.67
8699;BME280;4386;51.236;6.742;2023-05-01T02:12:23;96490.78;;;17.04;55.64
8699;BME280;4386;51.236;6.742;2023-05-01T02:13:29;96489.97;;;17.03;55.62
8699;BME280;4386;51.236;6.742;2023-05-01T02:14:34;96488.91;;;17.04;55.61
8699;BME280;4386;51.236;6.742;2023-05-01T02:15:37;96492.34;;;17.05;55.51
8699;BME280;4386;51.236;6.742;2023-05-01T02:16:43;96490.50;;;17.05;55.61
8699;BME280;4386;51.236;6.742;2023-05-01T02:17:49;96488.63;;;17.06;55.39
8699;BME280;4386;51.236;6.742;2023-05-01T02:18:53;96491.03;;;17.07;55.44
8699;BME280;4386;51.236;6.742;2023-05-01T02:19:58;96488.91;;;17.09;55.59
8699;BME280;4386;51.236;6.742;2023-05-01T02:21:02;96495.88;;;17.10;55.38
8699;BME280;4386;51.236;6.742;2023-05-01T02:22:16;96502.03;;;17.11;55.23
8699;BME280;4386;51.236;6.742;2023-05-01T02:23:20;96492.09;;;17.11;55.40
8699;BME280;4386;51.236;6.742;2023-05-01T02:24:24;96495.88;;;17.10;55.45
8699;BME280;4386;51.236;6.742;2023-05-01T02:25:31;96500.41;;;17.10;55.47
8699;BME280;4386;51.236;6.742;2023-05-01T02:26:40;96497.72;;;17.10;55.54
8699;BME280;4386;51.236;6.742;2023-05-01T02:27:46;96491.03;;;17.07;55.56
8699;BME280;4386;51.236;6.742;2023-05-01T02:28:51;96496.41;;;17.07;55.58
8699;BME280;4386;51.236;6.742;2023-05-01T02:29:53;96492.91;;;17.07;55.67
8699;BME280;4386;51.236;6.742;2023-05-01T02:30:57;96487.28;;;17.08;55.57
8699;BME280;4386;51.236;6.742;2023-05-01T02:32:00;96484.59;;;17.08;55.28
8699;BME280;4386;51.236;6.742;2023-05-01T02:33:05;96480.34;;;17.07;55.38
8699;BME280;4386;51.236;6.742;2023-05-01T02:34:09;96480.88;;;17.04;55.68
8699;BME280;4386;51.236;6.742;2023-05-01T02:35:13;96471.75;;;17.05;55.63
8699;BME280;4386;51.236;6.742;2023-05-01T02:36:17;96476.88;;;17.07;55.65
8699;BME280;4386;51.236;6.742;2023-05-01T02:37:20;96468.03;;;17.06;55.71
8699;BME280;4386;51.236;6.742;2023-05-01T02:38:23;96471.75;;;17.05;55.49
8699;BME280;4386;51.236;6.742;2023-05-01T02:39:27;96467.50;;;17.04;55.50
8699;BME280;4386;51.236;6.742;2023-05-01T02:40:29;96461.06;;;17.05;55.74
8699;BME280;4386;51.236;6.742;2023-05-01T02:41:34;96461.88;;;17.06;55.63
8699;BME280;4386;51.236;6.742;2023-05-01T02:42:37;96458.38;;;17.05;55.65
8699;BME280;4386;51.236;6.742;2023-05-01T02:43:42;96462.94;;;17.05;55.72
8699;BME280;4386;51.236;6.742;2023-05-01T02:44:50;96461.06;;;17.05;55.83
8699;BME280;4386;51.236;6.742;2023-05-01T02:45:57;96468.56;;;17.03;55.50
8699;BME280;4386;51.236;6.742;2023-05-01T02:47:01;96464.56;;;17.01;55.74
8699;BME280;4386;51.236;6.742;2023-05-01T02:48:07;96454.66;;;17.01;55.81
8699;BME280;4386;51.236;6.742;2023-05-01T02:49:13;96459.19;;;17.01;55.67
8699;BME280;4386;51.236;6.742;2023-05-01T02:50:18;96457.59;;;17.00;55.81
8699;BME280;4386;51.236;6.742;2023-05-01T02:51:24;96468.28;;;17.00;55.57
8699;BME280;4386;51.236;6.742;2023-05-01T02:52:29;96451.72;;;16.98;55.70
8699;BME280;4386;51.236;6.742;2023-05-01T02:53:33;96447.41;;;16.97;55.78
8699;BME280;4386;51.236;6.742;2023-05-01T02:54:36;96451.16;;;16.96;55.77
8699;BME280;4386;51.236;6.742;2023-05-01T02:55:40;96466.41;;;16.95;55.81
8699;BME280;4386;51.236;6.742;2023-05-01T02:56:43;96453.28;;;16.99;55.94
8699;BME280;4386;51.236;6.742;2023-05-01T02:57:49;96457.31;;;16.96;55.71
8699;BME280;4386;51.236;6.742;2023-05-01T02:58:52;96454.09;;;16.94;55.93
8699;BME280;4386;51.236;6.742;2023-05-01T02:59:56;96453.03;;;16.95;55.76
8699;BME280;4386;51.236;6.742;2023-05-01T03:01:02;96454.91;;;16.95;56.06
8699;BME280;4386;51.236;6.742;2023-05-01T03:02:08;96445.53;;;16.92;55.92
8699;BME280;4386;51.236;6.742;2023-05-01T03:03:19;96452.50;;;16.93;56.05
8699;BME280;4386;51.236;6.742;2023-05-01T03:04:27;96460.00;;;16.91;56.03
8699;BME280;4386;51.236;6.742;2023-05-01T03:05:38;96446.88;;;16.90;56.08
8699;BME280;4386;51.236;6.742;2023-05-01T03:06:43;96451.16;;;16.91;56.03
8699;BME280;4386;51.236;6.742;2023-05-01T03:07:47;96446.06;;;16.89;56.13
8699;BME280;4386;51.236;6.742;2023-05-01T03:08:49;96455.69;;;16.90;56.14
8699;BME280;4386;51.236;6.742;2023-05-01T03:09:53;96452.50;;;16.88;56.10
8699;BME280;4386;51.236;6.742;2023-05-01T03:10:56;96455.94;;;16.89;56.27
8699;BME280;4386;51.236;6.742;2023-05-01T03:11:59;96458.91;;;16.87;56.18
8699;BME280;4386;51.236;6.742;2023-05-01T03:13:03;96448.22;;;16.87;56.43
8699;BME280;4386;51.236;6.742;2023-05-01T03:14:06;96449.28;;;16.91;56.22
8699;BME280;4386;51.236;6.742;2023-05-01T03:15:10;96435.38;;;16.89;56.18
8699;BME280;4386;51.236;6.742;2023-05-01T03:16:14;96450.34;;;16.90;56.13
8699;BME280;4386;51.236;6.742;2023-05-01T03:17:16;96441.28;;;16.91;56.17
8699;BME280;4386;51.236;6.742;2023-05-01T03:18:20;96435.91;;;16.91;56.32
8699;BME280;4386;51.236;6.742;2023-05-01T03:19:22;96440.19;;;16.92;56.06
8699;BME280;4386;51.236;6.742;2023-05-01T03:20:26;96443.41;;;16.94;56.08
8699;BME280;4386;51.236;6.742;2023-05-01T03:21:29;96440.19;;;16.92;56.16
8699;BME280;4386;51.236;6.742;2023-05-01T03:22:34;96445.28;;;16.94;56.05
8699;BME280;4386;51.236;6.742;2023-05-01T03:23:36;96440.75;;;16.94;56.15
8699;BME280;4386;51.236;6.742;2023-05-01T03:24:40;96442.59;;;16.94;56.28
8699;BME280;4386;51.236;6.742;2023-05-01T03:25:43;96440.19;;;16.92;55.93
8699;BME280;4386;51.236;6.742;2023-05-01T03:26:46;96448.75;;;16.94;56.19
8699;BME280;4386;51.236;6.742;2023-05-01T03:27:49;96431.91;;;16.94;56.11
8699;BME280;4386;51.236;6.742;2023-05-01T03:28:55;96432.72;;;16.94;56.13
8699;BME280;4386;51.236;6.742;2023-05-01T03:29:58;96435.38;;;16.94;56.26
8699;BME280;4386;51.236;6.742;2023-05-01T03:31:01;96441.25;;;16.96;56.07
8699;BME280;4386;51.236;6.742;2023-05-01T03:32:04;96438.59;;;16.96;55.94
8699;BME280;4386;51.236;6.742;2023-05-01T03:33:08;96438.06;;;16.94;56.04
8699;BME280;4386;51.236;6.742;2023-05-01T03:34:10;96439.13;;;16.93;55.99
8699;BME280;4386;51.236;6.742;2023-05-01T03:35:14;96439.66;;;16.95;56.16
8699;BME280;4386;51.236;6.742;2023-05-01T03:36:16;96440.44;;;16.96;55.95
8699;BME280;4386;51.236;6.742;2023-05-01T03:37:20;96434.28;;;16.95;55.91
8699;BME280;4386;51.236;6.742;2023-05-01T03:38:24;96437.25;;;16.94;55.89
8699;BME280;4386;51.236;6.742;2023-05-01T03:39:28;96434.56;;;16.94;56.10
8699;BME280;4386;51.236;6.742;2023-05-01T03:40:30;96432.72;;;16.94;56.14
8699;BME280;4386;51.236;6.742;2023-05-01T03:41:34;96431.91;;;16.94;56.07
8699;BME280;4386;51.236;6.742;2023-05-01T03:42:36;96433.78;;;16.93;56.04
8699;BME280;4386;51.236;6.742;2023-05-01T03:43:40;96438.59;;;16.91;56.21
8699;BME280;4386;51.236;6.742;2023-05-01T03:44:43;96431.63;;;16.90;56.13
8699;BME280;4386;51.236;6.742;2023-05-01T03:45:46;96441.28;;;16.91;56.00
8699;BME280;4386;51.236;6.742;2023-05-01T03:46:49;96441.78;;;16.93;56.08
8699;BME280;4386;51.236;6.742;2023-05-01T03:47:52;96431.91;;;16.94;55.91
8699;BME280;4386;51.236;6.742;2023-05-01T03:48:55;96437.25;;;16.94;56.18
8699;BME280;4386;51.236;6.742;2023-05-01T03:49:58;96437.25;;;16.94;56.11
8699;BME280;4386;51.236;6.742;2023-05-01T03:51:01;96426.28;;;16.95;56.02
8699;BME280;4386;51.236;6.742;2023-05-01T03:52:04;96428.16;;;16.95;55.71
8699;BME280;4386;51.236;6.742;2023-05-01T03:53:07;96428.41;;;16.93;56.04
8699;BME280;4386;51.236;6.742;2023-05-01T03:54:12;96431.09;;;16.93;56.06
8699;BME280;4386;51.236;6.742;2023-05-01T03:55:15;96440.75;;;16.94;56.18
8699;BME280;4386;51.236;6.742;2023-05-01T03:56:19;96429.47;;;16.92;56.10
8699;BME280;4386;51.236;6.742;2023-05-01T03:57:21;96439.66;;;16.95;56.02
8699;BME280;4386;51.236;6.742;2023-05-01T03:58:25;96429.47;;;16.92;56.23
8699;BME280;4386;51.236;6.742;2023-05-01T03:59:27;96426.00;;;16.92;56.20
8699;BME280;4386;51.236;6.742;2023-05-01T04:00:31;96432.16;;;16.92;56.00
8699;BME280;4386;51.236;6.742;2023-05-01T04:01:34;96437.25;;;16.94;55.77
8699;BME280;4386;51.236;6.742;2023-05-01T04:02:37;96431.09;;;16.93;55.93
8699;BME280;4386;51.236;6.742;2023-05-01T04:03:40;96436.44;;;16.93;56.27
8699;BME280;4386;51.236;6.742;2023-05-01T04:04:43;96431.91;;;16.94;56.11
8699;BME280;4386;51.236;6.742;2023-05-01T04:05:46;96424.41;;;16.91;56.17
8699;BME280;4386;51.236;6.742;2023-05-01T04:06:50;96436.97;;;16.90;56.12
8699;BME280;4386;51.236;6.742;2023-05-01T04:07:53;96434.84;;;16.92;56.15
8699;BME280;4386;51.236;6.742;2023-05-01T04:08:56;96443.94;;;16.91;56.11
8699;BME280;4386;51.236;6.742;2023-05-01T04:10:00;96442.03;;;16.92;56.17
8699;BME280;4386;51.236;6.742;2023-05-01T04:11:03;96436.69;;;16.92;56.12
8699;BME280;4386;51.236;6.742;2023-05-01T04:12:06;96436.44;;;16.93;56.04
8699;BME280;4386;51.236;6.742;2023-05-01T04:13:09;96430.03;;;16.94;56.14
8699;BME280;4386;51.236;6.742;2023-05-01T04:14:13;96430.84;;;16.95;55.97
8699;BME280;4386;51.236;6.742;2023-05-01T04:15:16;96427.38;;;16.94;56.17
8699;BME280;4386;51.236;6.742;2023-05-01T04:16:18;96443.13;;;16.96;55.92
8699;BME280;4386;51.236;6.742;2023-05-01T04:17:22;96430.84;;;16.95;56.07
8699;BME280;4386;51.236;6.742;2023-05-01T04:18:25;96432.72;;;16.94;56.22
8699;BME280;4386;51.236;6.742;2023-05-01T04:19:29;96438.88;;;16.95;56.16
8699;BME280;4386;51.236;6.742;2023-05-01T04:20:31;96434.28;;;16.95;56.29
8699;BME280;4386;51.236;6.742;2023-05-01T04:21:35;96433.78;;;16.93;56.29
8699;BME280;4386;51.236;6.742;2023-05-01T04:22:37;96432.72;;;16.94;56.32
8699;BME280;4386;51.236;6.742;2023-05-01T04:23:40;96436.44;;;16.93;56.21
8699;BME280;4386;51.236;6.742;2023-05-01T04:24:43;96441.00;;;16.93;56.21
8699;BME280;4386;51.236;6.742;2023-05-01T04:25:47;96438.31;;;16.93;56.30
8699;BME280;4386;51.236;6.742;2023-05-01T04:26:50;96434.84;;;16.92;56.31
8699;BME280;4386;51.236;6.742;2023-05-01T04:27:53;96438.06;;;16.94;56.14
8699;BME280;4386;51.236;6.742;2023-05-01T04:28:56;96433.53;;;16.95;56.25
8699;BME280;4386;51.236;6.742;2023-05-01T04:30:01;96439.41;;;16.97;55.96
8699;BME280;4386;51.236;6.742;2023-05-01T04:31:04;96443.69;;;16.98;56.13
8699;BME280;4386;51.236;6.742;2023-05-01T04:32:07;96438.34;;;16.98;56.12
8699;BME280;4386;51.236;6.742;2023-05-01T04:33:10;96437.00;;;17.00;56.06
8699;BME280;4386;51.236;6.742;2023-05-01T04:34:14;96429.78;;;17.01;55.92
8699;BME280;4386;51.236;6.742;2023-05-01T04:35:17;96431.38;;;17.02;55.94
8699;BME280;4386;51.236;6.742;2023-05-01T04:36:20;96428.69;;;17.02;55.69
8699;BME280;4386;51.236;6.742;2023-05-01T04:37:23;96431.09;;;17.03;56.03
8699;BME280;4386;51.236;6.742;2023-05-01T04:38:26;96426.56;;;17.04;55.81
8699;BME280;4386;51.236;6.742;2023-05-01T04:39:30;96432.72;;;17.04;55.87
8699;BME280;4386;51.236;6.742;2023-05-01T04:40:33;96436.19;;;17.05;55.76
8699;BME280;4386;51.236;6.742;2023-05-01T04:41:43;96433.25;;;17.06;55.66
8699;BME280;4386;51.236;6.742;2023-05-01T04:42:47;96431.09;;;17.03;55.80
8699;BME280;4386;51.236;6.742;2023-05-01T04:43:49;96431.09;;;17.03;55.80
8699;BME280;4386;51.236;6.742;2023-05-01T04:44:53;96437.00;;;17.05;55.83
8699;BME280;4386;51.236;6.742;2023-05-01T04:45:55;96432.72;;;17.04;55.86
8699;BME280;4386;51.236;6.742;2023-05-01T04:47:00;96432.72;;;17.04;55.81
8699;BME280;4386;51.236;6.742;2023-05-01T04:48:03;96439.66;;;17.05;55.72
8699;BME280;4386;51.236;6.742;2023-05-01T04:49:07;96436.72;;;17.07;55.96
8699;BME280;4386;51.236;6.742;2023-05-01T04:50:11;96438.34;;;17.08;55.68
8699;BME280;4386;51.236;6.742;2023-05-01T04:51:13;96444.47;;;17.08;55.85
8699;BME280;4386;51.236;6.742;2023-05-01T04:52:17;96438.06;;;17.09;55.74
8699;BME280;4386;51.236;6.742;2023-05-01T04:53:20;96437.00;;;17.10;55.82
8699;BME280;4386;51.236;6.742;2023-05-01T04:54:23;96442.34;;;17.10;55.93
8699;BME280;4386;51.236;6.742;2023-05-01T04:55:26;96438.88;;;17.10;55.91
8699;BME280;4386;51.236;6.742;2023-05-01T04:56:32;96439.13;;;17.08;56.08
8699;BME280;4386;51.236;6.742;2023-05-01T04:57:37;96438.06;;;17.09;56.02
8699;BME280;4386;51.236;6.742;2023-05-01T04:58:40;96435.94;;;17.06;56.24
8699;BME280;4386;51.236;6.742;2023-05-01T04:59:43;96439.13;;;17.08;56.14
8699;BME280;4386;51.236;6.742;2023-05-01T05:00:46;96445.56;;;17.07;56.31
8699;BME280;4386;51.236;6.742;2023-05-01T05:01:49;96436.19;;;17.05;56.31
8699;BME280;4386;51.236;6.742;2023-05-01T05:02:52;96433.25;;;17.06;56.21
8699;BME280;4386;51.236;6.742;2023-05-01T05:03:55;96439.66;;;17.05;56.27
8699;BME280;4386;51.236;6.742;2023-05-01T05:04:58;96434.31;;;17.05;56.57
8699;BME280;4386;51.236;6.742;2023-05-01T05:06:01;96434.06;;;17.07;56.27
8699;BME280;4386;51.236;6.742;2023-05-01T05:07:04;96445.00;;;17.05;56.39
8699;BME280;4386;51.236;6.742;2023-05-01T05:08:07;96439.94;;;17.04;56.40
8699;BME280;4386;51.236;6.742;2023-05-01T05:09:10;96441.81;;;17.03;56.44
8699;BME280;4386;51.236;6.742;2023-05-01T05:10:13;96448.78;;;17.04;56.48
8699;BME280;4386;51.236;6.742;2023-05-01T05:11:16;96444.19;;;17.05;56.53
8699;BME280;4386;51.236;6.742;2023-05-01T05:12:20;96445.00;;;17.05;56.91
8699;BME280;4386;51.236;6.742;2023-05-01T05:13:24;96453.03;;;17.05;56.85
8699;BME280;4386;51.236;6.742;2023-05-01T05:14:28;96449.31;;;17.06;56.65
8699;BME280;4386;51.236;6.742;2023-05-01T05:15:30;96451.97;;;17.06;56.59
8699;BME280;4386;51.236;6.742;2023-05-01T05:16:34;96454.66;;;17.06;56.80
8699;BME280;4386;51.236;6.742;2023-05-01T05:17:36;96460.25;;;17.05;56.76
8699;BME280;4386;51.236;6.742;2023-05-01T05:18:40;96455.72;;;17.05;56.80
8699;BME280;4386;51.236;6.742;2023-05-01T05:19:42;96457.31;;;17.06;56.66
8699;BME280;4386;51.236;6.742;2023-05-01T05:20:46;96458.38;;;17.05;56.71
8699;BME280;4386;51.236;6.742;2023-05-01T05:21:48;96466.97;;;17.07;56.85
8699;BME280;4386;51.236;6.742;2023-05-01T05:22:52;96462.16;;;17.09;56.79
8699;BME280;4386;51.236;6.742;2023-05-01T05:23:55;96459.47;;;17.09;56.94
8699;BME280;4386;51.236;6.742;2023-05-01T05:24:58;96456.53;;;17.11;56.79
8699;BME280;4386;51.236;6.742;2023-05-01T05:26:05;96464.28;;;17.12;56.85
8699;BME280;4386;51.236;6.742;2023-05-01T05:27:09;96457.88;;;17.13;56.80
8699;BME280;4386;51.236;6.742;2023-05-01T05:28:12;96460.00;;;17.16;56.91
8699;BME280;4386;51.236;6.742;2023-05-01T05:29:16;96470.19;;;17.19;56.80
8699;BME280;4386;51.236;6.742;2023-05-01T05:30:20;96471.00;;;17.20;56.94
8699;BME280;4386;51.236;6.742;2023-05-01T05:31:22;96468.03;;;17.22;56.84
8699;BME280;4386;51.236;6.742;2023-05-01T05:32:26;96462.97;;;17.25;56.97
8699;BME280;4386;51.236;6.742;2023-05-01T05:33:29;96465.91;;;17.29;57.01
8699;BME280;4386;51.236;6.742;2023-05-01T05:34:33;96471.53;;;17.32;57.07
8699;BME280;4386;51.236;6.742;2023-05-01T05:35:35;96466.69;;;17.34;56.80
8699;BME280;4386;51.236;6.742;2023-05-01T05:36:39;96473.94;;;17.39;56.70
8699;BME280;4386;51.236;6.742;2023-05-01T05:37:41;96477.69;;;17.43;56.75
8699;BME280;4386;51.236;6.742;2023-05-01T05:38:47;96482.50;;;17.46;56.64
8699;BME280;4386;51.236;6.742;2023-05-01T05:39:49;96483.03;;;17.48;56.78
8699;BME280;4386;51.236;6.742;2023-05-01T05:40:53;96484.91;;;17.52;56.82
8699;BME280;4386;51.236;6.742;2023-05-01T05:41:56;96481.47;;;17.57;56.72
8699;BME280;4386;51.236;6.742;2023-05-01T05:42:59;96484.66;;;17.64;56.74
8699;BME280;4386;51.236;6.742;2023-05-01T05:44:02;96478.00;;;17.66;56.88
8699;BME280;4386;51.236;6.742;2023-05-01T05:45:08;96486.00;;;17.72;56.63
8699;BME280;4386;51.236;6.742;2023-05-01T05:46:11;96476.91;;;17.78;56.66
8699;BME280;4386;51.236;6.742;2023-05-01T05:47:14;96476.09;;;17.82;56.92
8699;BME280;4386;51.236;6.742;2023-05-01T05:48:17;96472.84;;;17.90;56.42
8699;BME280;4386;51.236;6.742;2023-05-01T05:49:20;96473.94;;;17.94;56.23
8699;BME280;4386;51.236;6.742;2023-05-01T05:50:23;96465.91;;;17.99;56.07
8699;BME280;4386;51.236;6.742;2023-05-01T05:51:26;96477.09;;;18.06;55.99
8699;BME280;4386;51.236;6.742;2023-05-01T05:52:30;96472.81;;;18.10;55.87
8699;BME280;4386;51.236;6.742;2023-05-01T05:53:32;96469.84;;;18.17;55.85
8699;BME280;4386;51.236;6.742;2023-05-01T05:54:35;96469.84;;;18.22;55.71
8699;BME280;4386;51.236;6.742;2023-05-01T05:55:38;96469.56;;;18.29;55.64
8699;BME280;4386;51.236;6.742;2023-05-01T05:56:42;96464.47;;;18.32;55.63
8699;BME280;4386;51.236;6.742;2023-05-01T05:57:45;96465.19;;;18.43;55.43
8699;BME280;4386;51.236;6.742;2023-05-01T05:58:48;96470.56;;;18.53;55.18
8699;BME280;4386;51.236;6.742;2023-05-01T05:59:50;96468.13;;;18.61;55.27
8699;BME280;4386;51.236;6.742;2023-05-01T06:00:56;96459.22;;;18.71;54.77
8699;BME280;4386;51.236;6.742;2023-05-01T06:01:59;96451.69;;;18.78;54.75
8699;BME280;4386;51.236;6.742;2023-05-01T06:03:03;96459.13;;;18.86;54.36
8699;BME280;4386;51.236;6.742;2023-05-01T06:04:05;96459.91;;;18.92;54.23
8699;BME280;4386;51.236;6.742;2023-05-01T06:05:09;96462.28;;;18.98;54.26
8699;BME280;4386;51.236;6.742;2023-05-01T06:06:12;96467.06;;;19.06;53.97
8699;BME280;4386;51.236;6.742;2023-05-01T06:07:16;96452.78;;;19.16;53.60
8699;BME280;4386;51.236;6.742;2023-05-01T06:08:18;96465.59;;;19.24;53.38
8699;BME280;4386;51.236;6.742;2023-05-01T06:09:23;96463.13;;;19.33;53.32
8699;BME280;4386;51.236;6.742;2023-05-01T06:10:26;96471.41;;;19.41;53.08
8699;BME280;4386;51.236;6.742;2023-05-01T06:11:29;96465.94;;;19.51;53.15
8699;BME280;4386;51.236;6.742;2023-05-01T06:12:33;96462.44;;;19.56;52.71
8699;BME280;4386;51.236;6.742;2023-05-01T06:13:40;96460.22;;;19.63;52.61
8699;BME280;4386;51.236;6.742;2023-05-01T06:14:43;96467.16;;;19.69;52.81
8699;BME280;4386;51.236;6.742;2023-05-01T06:15:46;96466.25;;;19.79;52.68
8699;BME280;4386;51.236;6.742;2023-05-01T06:16:51;96469.38;;;19.91;52.16
8699;BME280;4386;51.236;6.742;2023-05-01T06:17:53;96472.22;;;19.99;52.14
8699;BME280;4386;51.236;6.742;2023-05-01T06:18:57;96466.84;;;19.99;52.04
8699;BME280;4386;51.236;6.742;2023-05-01T06:19:59;96477.59;;;19.99;52.44